Time;durP1;ratioP1;P1;durP2;ratioP2;P2;SDS_P1;SDS_P2;PMS_P1;PMS_P2;Temp;Humidity;BMP_temperature;BMP_pressure;BME280_temperature;BME280_humidity;BME280_pressure;Samples;Min_cycle;Max_cycle;Signal;HPM_P1;HPM_P2
2021/08/05 00:01:06;;;;;;;6.88;4.32;;;;;;;;;;5097798;28;20032;-92
2021/08/05 00:03:32;;;;;;;8.02;4.60;;;;;;;;;;5098436;28;20040;-91
2021/08/05 00:05:58;;;;;;;7.65;4.80;;;;;;;;;;5098600;28;20049;-93
2021/08/05 00:08:24;;;;;;;9.60;4.95;;;;;;;;;;5097797;28;20020;-91
2021/08/05 00:10:50;;;;;;;6.07;4.28;;;;;;;;;;5098542;28;20402;-92
2021/08/05 00:13:16;;;;;;;9.68;4.82;;;;;;;;;;5098544;28;20435;-92
2021/08/05 00:15:43;;;;;;;10.15;4.65;;;;;;;;;;5098619;28;20047;-90
2021/08/05 00:18:09;;;;;;;6.88;4.80;;;;;;;;;;5098452;28;20020;-92
2021/08/05 00:20:35;;;;;;;8.77;4.68;;;;;;;;;;5097498;28;20035;-91
2021/08/05 00:23:01;;;;;;;8.43;5.18;;;;;;;;;;5097589;28;20024;-90
2021/08/05 00:25:27;;;;;;;8.38;4.75;;;;;;;;;;5097451;28;20024;-90
2021/08/05 00:27:53;;;;;;;10.52;5.53;;;;;;;;;;5098374;28;20024;-91
2021/08/05 00:30:19;;;;;;;8.95;4.78;;;;;;;;;;5097465;28;20016;-94
2021/08/05 00:32:45;;;;;;;7.78;5.38;;;;;;;;;;5098385;28;20024;-91
2021/08/05 00:35:12;;;;;;;11.40;5.30;;;;;;;;;;5097363;28;20039;-91
2021/08/05 00:37:38;;;;;;;9.35;4.97;;;;;;;;;;5098316;28;20314;-93
2021/08/05 00:40:04;;;;;;;7.45;5.00;;;;;;;;;;5098374;28;20146;-90
2021/08/05 00:42:31;;;;;;;8.00;4.85;;;;;;;;;;5097279;28;20028;-91
2021/08/05 00:44:57;;;;;;;7.57;5.25;;;;;;;;;;5097051;28;20055;-92
2021/08/05 00:47:26;;;;;;;8.48;5.50;;;;;;;;;;5098052;28;20022;-90
2021/08/05 00:49:52;;;;;;;7.80;5.50;;;;;;;;;;5097956;28;20028;-92
2021/08/05 00:52:18;;;;;;;11.38;5.90;;;;;;;;;;5098065;28;20024;-92
2021/08/05 00:54:44;;;;;;;7.72;5.28;;;;;;;;;;5097961;28;20393;-91
2021/08/05 00:57:10;;;;;;;7.75;5.55;;;;;;;;;;5096901;28;20032;-91
2021/08/05 00:59:37;;;;;;;8.27;5.47;;;;;;;;;;5097903;28;20028;-91
2021/08/05 01:02:08;;;;;;;7.60;5.82;;;;;;;;;;5100299;28;20024;-94
2021/08/05 01:04:34;;;;;;;;;;;;;;;;;;5103348;28;20047;-94
2021/08/05 01:07:04;;;;;;;8.68;5.07;;;;;;;;;;5101279;28;19904;-94
2021/08/05 01:09:46;;;;;;;9.77;5.32;;;;;;;;;;5099192;28;20020;-93
2021/08/05 01:12:23;;;;;;;8.38;5.68;;;;;;;;;;5102547;28;20022;-94
2021/08/05 01:14:54;;;;;;;10.05;5.88;;;;;;;;;;5097805;28;20396;-91
2021/08/05 01:17:22;;;;;;;6.32;5.28;;;;;;;;;;5096931;28;20047;-94
2021/08/05 01:19:51;;;;;;;10.52;6.07;;;;;;;;;;5097508;28;20070;-90
2021/08/05 01:22:22;;;;;;;7.00;5.55;;;;;;;;;;5097632;28;20039;-90
2021/08/05 01:25:08;;;;;;;7.97;5.57;;;;;;;;;;5096972;28;20070;-90
2021/08/05 01:27:35;;;;;;;7.88;5.90;;;;;;;;;;5097624;28;20073;-89
2021/08/05 01:30:01;;;;;;;9.57;5.70;;;;;;;;;;5097694;28;20024;-89
2021/08/05 01:32:28;;;;;;;7.70;5.35;;;;;;;;;;5097757;28;20020;-89
2021/08/05 01:34:55;;;;;;;8.93;5.65;;;;;;;;;;5097407;28;20032;-90
2021/08/05 01:37:23;;;;;;;9.38;5.65;;;;;;;;;;5097353;28;20028;-89
2021/08/05 01:39:50;;;;;;;8.10;5.78;;;;;;;;;;5097577;28;20118;-89
2021/08/05 01:42:18;;;;;;;9.23;5.57;;;;;;;;;;5096516;28;20209;-90
2021/08/05 01:44:45;;;;;;;10.05;6.15;;;;;;;;;;5097513;28;20077;-91
2021/08/05 01:47:12;;;;;;;9.93;6.45;;;;;;;;;;5097453;28;20020;-92
2021/08/05 01:49:39;;;;;;;7.82;5.75;;;;;;;;;;5097359;28;20016;-93
2021/08/05 01:52:07;;;;;;;8.88;6.20;;;;;;;;;;5096463;28;20028;-93
2021/08/05 01:54:33;;;;;;;8.75;5.90;;;;;;;;;;5096387;28;20068;-93
2021/08/05 01:56:59;;;;;;;7.85;5.72;;;;;;;;;;5097449;28;20028;-94
2021/08/05 01:59:43;;;;;;;9.85;6.07;;;;;;;;;;5097644;28;20032;-93
2021/08/05 02:02:10;;;;;;;8.98;5.93;;;;;;;;;;5097101;28;20020;-89
2021/08/05 02:04:41;;;;;;;7.38;5.68;;;;;;;;;;5096979;28;20093;-92
2021/08/05 02:07:10;;;;;;;7.90;5.65;;;;;;;;;;5097170;28;20025;-91
2021/08/05 02:09:40;;;;;;;10.95;6.43;;;;;;;;;;5096337;28;20494;-90
2021/08/05 02:12:07;;;;;;;7.47;5.63;;;;;;;;;;5097530;28;20053;-92
2021/08/05 02:14:35;;;;;;;9.30;5.43;;;;;;;;;;5099934;28;20343;-92
2021/08/05 02:17:01;;;;;;;6.57;5.60;;;;;;;;;;5101042;28;20031;-92
2021/08/05 02:19:29;;;;;;;7.53;5.35;;;;;;;;;;5100925;28;20421;-92
2021/08/05 02:21:55;;;;;;;8.38;5.25;;;;;;;;;;5100554;28;20028;-91
2021/08/05 02:24:22;;;;;;;8.50;5.30;;;;;;;;;;5105759;28;20024;-95
2021/08/05 02:26:49;;;;;;;7.00;5.03;;;;;;;;;;5114315;28;20048;-93
2021/08/05 02:29:17;;;;;;;5.40;4.90;;;;;;;;;;5101142;28;20042;-94
2021/08/05 02:31:43;;;;;;;6.90;4.68;;;;;;;;;;5104808;28;20026;-93
2021/08/05 02:34:09;;;;;;;6.10;5.03;;;;;;;;;;5112795;28;20030;-94
2021/08/05 02:36:36;;;;;;;6.55;5.03;;;;;;;;;;5112788;28;20039;-95
2021/08/05 02:39:03;;;;;;;7.72;5.53;;;;;;;;;;5109021;28;20417;-92
2021/08/05 02:41:29;;;;;;;9.38;5.53;;;;;;;;;;5100541;28;20024;-94
2021/08/05 02:43:58;;;;;;;9.50;5.32;;;;;;;;;;5099193;28;20421;-93
2021/08/05 02:46:25;;;;;;;7.18;4.97;;;;;;;;;;5100382;28;20020;-93
2021/08/05 02:48:52;;;;;;;7.35;5.38;;;;;;;;;;5099175;28;20020;-93
2021/08/05 02:51:18;;;;;;;8.02;5.75;;;;;;;;;;5100014;28;20057;-92
2021/08/05 02:53:44;;;;;;;5.95;5.35;;;;;;;;;;5099362;28;20094;-92
2021/08/05 02:56:11;;;;;;;6.38;4.70;;;;;;;;;;5100132;28;20069;-91
2021/08/05 02:58:38;;;;;;;6.55;4.40;;;;;;;;;;5100562;28;20020;-93
2021/08/05 03:01:04;;;;;;;7.63;4.95;;;;;;;;;;5099475;28;20063;-91
2021/08/05 03:03:31;;;;;;;7.25;4.95;;;;;;;;;;5099800;28;20111;-91
2021/08/05 03:05:57;;;;;;;8.43;5.35;;;;;;;;;;5099853;28;20030;-92
2021/08/05 03:08:23;;;;;;;8.85;5.55;;;;;;;;;;5099670;28;20024;-91
2021/08/05 03:10:49;;;;;;;7.63;5.20;;;;;;;;;;5099884;28;20020;-91
2021/08/05 03:13:16;;;;;;;7.57;4.80;;;;;;;;;;5099832;28;20429;-93
2021/08/05 03:15:42;;;;;;;7.93;5.18;;;;;;;;;;5099576;28;20114;-93
2021/08/05 03:18:08;;;;;;;9.23;5.03;;;;;;;;;;5099769;28;20099;-92
2021/08/05 03:20:35;;;;;;;7.68;5.18;;;;;;;;;;5099564;28;20032;-93
2021/08/05 03:23:01;;;;;;;5.72;4.93;;;;;;;;;;5098939;28;20135;-92
2021/08/05 03:25:27;;;;;;;10.88;5.00;;;;;;;;;;5099225;28;20310;-93
2021/08/05 03:27:53;;;;;;;6.95;5.13;;;;;;;;;;5099650;28;20036;-92
2021/08/05 03:30:19;;;;;;;6.68;4.95;;;;;;;;;;5099133;28;20024;-93
2021/08/05 03:32:46;;;;;;;7.18;5.15;;;;;;;;;;5098509;28;20020;-93
2021/08/05 03:35:14;;;;;;;10.07;5.40;;;;;;;;;;5103783;28;20058;-94
2021/08/05 03:37:40;;;;;;;8.63;4.93;;;;;;;;;;5116040;28;20032;-94
2021/08/05 03:40:11;;;;;;;7.78;5.25;;;;;;;;;;5116429;28;20028;-96
2021/08/05 03:42:39;;;;;;;5.72;5.13;;;;;;;;;;5115031;28;20043;-95
2021/08/05 03:45:05;;;;;;;7.30;4.90;;;;;;;;;;5112861;28;20036;-94
2021/08/05 03:47:33;;;;;;;8.57;5.40;;;;;;;;;;5275826;22;20060;-94
2021/08/05 03:49:59;;;;;;;7.55;5.55;;;;;;;;;;5065234;28;20053;-96
2021/08/05 03:52:25;;;;;;;9.35;5.57;;;;;;;;;;5066802;28;20031;-95
2021/08/05 03:54:51;;;;;;;9.68;5.20;;;;;;;;;;5069743;28;20029;-95
2021/08/05 03:57:17;;;;;;;8.77;5.05;;;;;;;;;;5066478;28;20052;-94
2021/08/05 03:59:44;;;;;;;7.13;5.32;;;;;;;;;;5057789;28;20033;-91
2021/08/05 04:02:10;;;;;;;8.20;5.13;;;;;;;;;;5058563;28;20359;-93
2021/08/05 04:04:37;;;;;;;7.82;5.20;;;;;;;;;;5058893;28;20028;-89
2021/08/05 04:07:04;;;;;;;9.48;4.70;;;;;;;;;;5058742;28;20132;-93
2021/08/05 04:09:30;;;;;;;8.32;5.53;;;;;;;;;;5058093;28;20021;-91
2021/08/05 04:11:56;;;;;;;9.15;5.40;;;;;;;;;;5057410;28;20021;-91
2021/08/05 04:14:22;;;;;;;7.20;5.22;;;;;;;;;;5057377;28;20040;-91
2021/08/05 04:16:48;;;;;;;6.60;5.25;;;;;;;;;;5057235;28;20079;-90
2021/08/05 04:19:15;;;;;;;6.68;5.28;;;;;;;;;;5057140;28;20041;-91
2021/08/05 04:21:41;;;;;;;6.35;5.00;;;;;;;;;;5058191;28;20063;-90
2021/08/05 04:24:07;;;;;;;10.82;5.40;;;;;;;;;;5058101;28;20028;-90
2021/08/05 04:26:33;;;;;;;9.98;5.20;;;;;;;;;;5057254;28;20357;-89
2021/08/05 04:32:03;;;;;;;9.18;5.90;;;;;;;;;;5058173;28;20070;-91
2021/08/05 04:34:29;;;;;;;11.35;5.22;;;;;;;;;;5058013;28;20021;-93
2021/08/05 04:36:55;;;;;;;8.82;4.78;;;;;;;;;;5059155;28;20357;-93
2021/08/05 04:39:21;;;;;;;7.68;5.38;;;;;;;;;;5057250;28;20041;-93
2021/08/05 04:41:48;;;;;;;6.53;5.22;;;;;;;;;;5058040;28;20029;-93
2021/08/05 04:44:14;;;;;;;7.80;5.00;;;;;;;;;;5056827;28;20029;-92
2021/08/05 04:46:40;;;;;;;6.32;4.85;;;;;;;;;;5057819;28;20036;-91
2021/08/05 04:49:06;;;;;;;8.98;5.40;;;;;;;;;;5057578;28;20049;-92
2021/08/05 04:51:32;;;;;;;9.15;5.72;;;;;;;;;;5056832;28;20029;-91
2021/08/05 04:54:02;;;;;;;9.10;5.28;;;;;;;;;;5056705;28;20402;-91
2021/08/05 04:56:29;;;;;;;9.13;5.53;;;;;;;;;;5056842;28;20024;-93
2021/08/05 04:58:55;;;;;;;8.68;4.85;;;;;;;;;;5057795;28;20401;-91
2021/08/05 05:01:21;;;;;;;8.10;4.88;;;;;;;;;;5059017;28;20028;-94
2021/08/05 05:03:49;;;;;;;11.45;4.97;;;;;;;;;;5057479;28;20017;-94
2021/08/05 05:06:16;;;;;;;11.85;5.40;;;;;;;;;;5062257;28;20017;-93
2021/08/05 05:08:43;;;;;;;6.65;4.88;;;;;;;;;;5056172;28;20050;-90
2021/08/05 05:11:09;;;;;;;11.55;5.32;;;;;;;;;;5043810;28;20021;-82
2021/08/05 05:13:35;;;;;;;9.95;4.35;;;;;;;;;;5042144;28;20026;-84
2021/08/05 05:16:01;;;;;;;12.38;5.97;;;;;;;;;;5037041;28;20025;-84
2021/08/05 05:18:27;;;;;;;11.90;6.18;;;;;;;;;;5037112;28;20069;-84
2021/08/05 05:20:53;;;;;;;7.28;4.95;;;;;;;;;;5036147;28;20029;-84
2021/08/05 05:23:20;;;;;;;10.98;6.13;;;;;;;;;;5036031;28;20041;-84
2021/08/05 05:25:46;;;;;;;12.50;6.40;;;;;;;;;;5037150;28;20029;-84
2021/08/05 05:28:12;;;;;;;11.75;5.38;;;;;;;;;;5036309;28;20067;-83
2021/08/05 05:30:39;;;;;;;10.40;5.30;;;;;;;;;;5037063;28;20040;-83
2021/08/05 05:33:07;;;;;;;12.93;6.00;;;;;;;;;;5036089;28;20022;-83
2021/08/05 05:35:33;;;;;;;10.35;5.10;;;;;;;;;;5036955;28;20060;-83
2021/08/05 05:38:00;;;;;;;10.48;4.97;;;;;;;;;;5036914;28;20087;-84
2021/08/05 05:40:26;;;;;;;11.95;5.50;;;;;;;;;;5037084;28;20022;-84
2021/08/05 05:42:53;;;;;;;8.25;5.38;;;;;;;;;;5036874;28;20026;-84
2021/08/05 05:45:19;;;;;;;8.73;4.57;;;;;;;;;;5035651;28;20021;-84
2021/08/05 05:47:45;;;;;;;10.32;5.25;;;;;;;;;;5039662;28;20053;-84
2021/08/05 05:50:12;;;;;;;47.45;29.88;;;;;;;;;;5040594;28;20076;-84
2021/08/05 05:52:39;;;;;;;13.82;5.55;;;;;;;;;;5041027;28;20021;-84
2021/08/05 05:55:06;;;;;;;17.15;10.25;;;;;;;;;;5039551;28;20100;-83
2021/08/05 05:57:32;;;;;;;13.38;5.53;;;;;;;;;;5040175;28;20022;-84
2021/08/05 05:59:58;;;;;;;9.85;5.22;;;;;;;;;;5039617;28;20059;-84
2021/08/05 06:02:24;;;;;;;10.63;5.28;;;;;;;;;;5040491;28;20404;-84
2021/08/05 06:04:50;;;;;;;17.90;6.35;;;;;;;;;;5040236;28;20030;-84
2021/08/05 06:07:16;;;;;;;10.57;5.40;;;;;;;;;;5039590;28;20116;-84
2021/08/05 06:09:42;;;;;;;14.07;5.32;;;;;;;;;;5040669;28;20103;-83
2021/08/05 06:12:08;;;;;;;13.07;5.95;;;;;;;;;;5040637;28;20021;-84
2021/08/05 06:14:34;;;;;;;11.18;5.70;;;;;;;;;;5039280;28;20041;-84
2021/08/05 06:17:00;;;;;;;10.65;5.07;;;;;;;;;;5039318;28;20092;-83
2021/08/05 06:19:26;;;;;;;14.20;5.57;;;;;;;;;;5039413;28;20029;-83
2021/08/05 06:21:52;;;;;;;16.58;6.22;;;;;;;;;;5046840;28;20116;-84
2021/08/05 06:24:18;;;;;;;13.77;5.00;;;;;;;;;;5060011;28;20033;-83
2021/08/05 06:26:45;;;;;;;15.20;5.32;;;;;;;;;;5060454;28;20314;-84
2021/08/05 06:29:32;;;;;;;20.88;6.20;;;;;;;;;;5060299;28;20086;-84
2021/08/05 06:31:58;;;;;;;19.17;5.75;;;;;;;;;;5054999;28;20040;-84
2021/08/05 06:34:24;;;;;;;17.10;5.57;;;;;;;;;;5058743;28;20029;-84
2021/08/05 06:36:50;;;;;;;14.30;5.10;;;;;;;;;;5058963;28;20048;-84
2021/08/05 06:39:18;;;;;;;13.23;5.32;;;;;;;;;;5060281;28;20067;-84
2021/08/05 06:41:44;;;;;;;14.13;5.20;;;;;;;;;;5060020;28;20025;-84
2021/08/05 06:44:11;;;;;;;16.25;5.30;;;;;;;;;;5059695;28;20423;-83
2021/08/05 06:46:37;;;;;;;23.65;6.90;;;;;;;;;;5058860;28;20468;-84
2021/08/05 06:49:03;;;;;;;17.90;5.22;;;;;;;;;;5058579;28;20056;-84
2021/08/05 06:51:29;;;;;;;16.35;5.35;;;;;;;;;;5059937;28;20029;-84
2021/08/05 07:48:21;;;;;;;45.85;9.93;;;;;;;;;;5094917;27;20370;-77
2021/08/05 07:50:47;;;;;;;38.97;12.18;;;;;;;;;;5094570;28;20070;-77
2021/08/05 07:53:13;;;;;;;40.47;10.13;;;;;;;;;;5094503;28;20329;-77
2021/08/05 07:55:39;;;;;;;45.17;10.55;;;;;;;;;;5094514;28;20296;-77
2021/08/05 07:58:05;;;;;;;30.42;11.70;;;;;;;;;;5093274;28;20032;-77
2021/08/05 08:00:35;;;;;;;40.33;14.52;;;;;;;;;;5093254;28;20031;-77
2021/08/05 08:03:01;;;;;;;31.50;10.38;;;;;;;;;;5094544;28;20028;-77
2021/08/05 08:05:27;;;;;;;22.02;8.68;;;;;;;;;;5094313;28;20028;-77
2021/08/05 08:07:53;;;;;;;32.17;13.85;;;;;;;;;;5094281;28;20394;-77
2021/08/05 08:10:19;;;;;;;33.90;13.13;;;;;;;;;;5094193;28;20461;-77
2021/08/05 08:12:45;;;;;;;23.38;9.35;;;;;;;;;;5094064;28;20322;-77
2021/08/05 08:15:12;;;;;;;34.45;15.65;;;;;;;;;;5094104;28;20305;-77
2021/08/05 08:17:38;;;;;;;23.67;9.50;;;;;;;;;;5092946;28;20425;-77
2021/08/05 08:20:06;;;;;;;26.65;9.70;;;;;;;;;;5094184;28;20028;-77
2021/08/05 08:22:32;;;;;;;15.90;7.22;;;;;;;;;;5093995;28;20024;-77
2021/08/05 08:24:58;;;;;;;25.60;8.43;;;;;;;;;;5093944;28;20016;-77
2021/08/05 08:27:24;;;;;;;34.63;9.65;;;;;;;;;;5092819;28;20064;-77
2021/08/05 08:29:50;;;;;;;29.55;11.70;;;;;;;;;;5093554;28;20062;-77
2021/08/05 08:32:16;;;;;;;27.10;9.10;;;;;;;;;;5087360;28;20058;-77
2021/08/05 08:34:42;;;;;;;19.25;8.02;;;;;;;;;;5074666;28;20369;-77
2021/08/05 08:37:08;;;;;;;29.17;12.40;;;;;;;;;;5073509;28;20025;-77
2021/08/05 08:39:34;;;;;;;25.48;12.75;;;;;;;;;;5073463;28;20021;-77
2021/08/05 08:42:01;;;;;;;26.63;10.32;;;;;;;;;;5073246;28;20699;-77
2021/08/05 08:44:27;;;;;;;20.83;10.88;;;;;;;;;;5073118;28;20107;-77
2021/08/05 08:46:53;;;;;;;25.73;10.38;;;;;;;;;;5072806;28;20060;-76
2021/08/05 08:49:24;;;;;;;16.98;9.77;;;;;;;;;;5072732;28;20023;-77
2021/08/05 08:51:51;;;;;;;22.23;8.70;;;;;;;;;;5072968;28;20020;-77
2021/08/05 08:54:18;;;;;;;35.90;17.80;;;;;;;;;;5073109;28;20021;-77
2021/08/05 08:56:44;;;;;;;26.05;10.25;;;;;;;;;;5072896;28;20025;-77
2021/08/05 08:59:11;;;;;;;16.27;8.32;;;;;;;;;;5068722;28;20073;-76
2021/08/05 09:01:41;;;;;;;16.83;8.13;;;;;;;;;;5059757;28;20024;-77
2021/08/05 09:04:07;;;;;;;17.52;7.63;;;;;;;;;;5074543;28;20312;-77
2021/08/05 09:06:34;;;;;;;13.55;6.85;;;;;;;;;;5068347;28;20033;-77
2021/08/05 09:09:00;;;;;;;12.80;5.32;;;;;;;;;;5059493;28;20029;-77
2021/08/05 09:11:26;;;;;;;13.32;4.45;;;;;;;;;;5058513;28;20025;-77
2021/08/05 09:13:52;;;;;;;14.50;5.80;;;;;;;;;;5059523;28;20021;-77
2021/08/05 09:16:21;;;;;;;16.38;8.82;;;;;;;;;;5059400;28;20044;-77
2021/08/05 09:18:47;;;;;;;11.90;5.35;;;;;;;;;;5059602;28;20021;-77
2021/08/05 09:21:18;;;;;;;8.20;4.43;;;;;;;;;;5059109;28;20025;-77
2021/08/05 09:23:48;;;;;;;10.63;5.47;;;;;;;;;;5059133;28;20021;-77
2021/08/05 09:26:26;;;;;;;15.85;8.25;;;;;;;;;;5059134;28;20021;-77
2021/08/05 09:29:01;;;;;;;13.10;6.50;;;;;;;;;;5059422;28;20080;-77
2021/08/05 09:31:27;;;;;;;11.52;6.10;;;;;;;;;;5058011;28;20475;-77
2021/08/05 09:34:07;;;;;;;12.15;5.90;;;;;;;;;;5059323;28;20083;-77
2021/08/05 09:36:34;;;;;;;19.23;9.73;;;;;;;;;;5059175;28;20100;-77
2021/08/05 09:39:00;;;;;;;16.80;7.05;;;;;;;;;;5059072;28;20033;-77
2021/08/05 09:41:26;;;;;;;14.93;6.20;;;;;;;;;;5058063;28;20025;-77
2021/08/05 09:44:00;;;;;;;14.95;6.68;;;;;;;;;;5057828;28;20426;-76
2021/08/05 09:46:30;;;;;;;12.75;5.88;;;;;;;;;;5058579;28;20128;-77
2021/08/05 09:48:56;;;;;;;14.93;5.90;;;;;;;;;;5058726;28;20029;-77
2021/08/05 09:51:22;;;;;;;13.93;6.00;;;;;;;;;;5058853;28;20029;-77
2021/08/05 09:54:06;;;;;;;12.43;6.50;;;;;;;;;;5058679;28;20438;-77
2021/08/05 09:56:34;;;;;;;11.48;5.90;;;;;;;;;;5058763;28;20464;-76
2021/08/05 09:59:04;;;;;;;11.55;6.05;;;;;;;;;;5058753;28;20039;-77
2021/08/05 10:01:30;;;;;;;14.02;6.35;;;;;;;;;;5058791;28;20056;-77
2021/08/05 10:03:56;;;;;;;9.88;6.60;;;;;;;;;;5058736;28;20408;-77
2021/08/05 10:06:22;;;;;;;13.82;6.35;;;;;;;;;;5058506;28;20025;-77
2021/08/05 10:08:48;;;;;;;13.13;7.72;;;;;;;;;;5058563;28;20021;-77
2021/08/05 10:11:16;;;;;;;13.00;7.03;;;;;;;;;;5057417;28;20017;-77
2021/08/05 10:13:42;;;;;;;19.23;9.52;;;;;;;;;;5058191;28;20429;-77
2021/08/05 10:16:09;;;;;;;16.02;10.18;;;;;;;;;;5058465;28;20025;-77
2021/08/05 10:18:36;;;;;;;11.27;6.93;;;;;;;;;;5057228;28;20025;-77
2021/08/05 10:21:04;;;;;;;14.30;7.20;;;;;;;;;;5058323;28;20053;-77
2021/08/05 10:23:31;;;;;;;12.07;6.93;;;;;;;;;;5058494;28;20108;-77
2021/08/05 10:25:58;;;;;;;13.10;6.88;;;;;;;;;;5057102;28;20345;-77
2021/08/05 10:28:25;;;;;;;13.73;7.35;;;;;;;;;;5058085;28;20056;-77
2021/08/05 10:30:52;;;;;;;14.55;6.65;;;;;;;;;;5056963;28;20040;-77
2021/08/05 10:33:18;;;;;;;12.10;6.63;;;;;;;;;;5058194;28;20025;-77
2021/08/05 10:35:48;;;;;;;15.20;6.97;;;;;;;;;;5057943;28;20330;-77
2021/08/05 10:38:16;;;;;;;11.60;7.28;;;;;;;;;;5056927;28;20032;-77
2021/08/05 10:40:42;;;;;;;14.77;6.38;;;;;;;;;;5056595;28;20037;-77
2021/08/05 10:43:08;;;;;;;12.40;6.32;;;;;;;;;;5057798;28;20067;-76
2021/08/05 10:45:34;;;;;;;9.23;6.70;;;;;;;;;;5057726;28;20445;-78
2021/08/05 10:48:02;;;;;;;15.05;7.70;;;;;;;;;;5057525;28;20049;-78
2021/08/05 10:50:28;;;;;;;16.58;7.75;;;;;;;;;;5057344;28;20025;-78
2021/08/05 10:52:58;;;;;;;13.50;7.90;;;;;;;;;;5057603;28;20021;-78
2021/08/05 10:55:27;;;;;;;11.73;7.53;;;;;;;;;;5057739;28;20021;-78
2021/08/05 10:58:08;;;;;;;11.18;7.78;;;;;;;;;;5056560;28;20033;-78
2021/08/05 11:00:49;;;;;;;11.65;8.25;;;;;;;;;;5056473;28;20059;-78
2021/08/05 11:03:35;;;;;;;11.10;8.18;;;;;;;;;;5057611;28;20029;-78
2021/08/05 11:06:25;;;;;;;12.43;7.57;;;;;;;;;;5057641;28;20029;-78
2021/08/05 11:08:51;;;;;;;13.38;7.85;;;;;;;;;;5057470;28;20055;-78
2021/08/05 11:11:20;;;;;;;15.02;7.90;;;;;;;;;;5057367;28;20356;-78
2021/08/05 11:14:06;;;;;;;15.32;8.27;;;;;;;;;;5057343;28;20032;-78
2021/08/05 11:16:51;;;;;;;13.43;7.72;;;;;;;;;;5057456;28;20048;-78
2021/08/05 11:19:20;;;;;;;11.82;7.97;;;;;;;;;;5057181;28;20058;-78
2021/08/05 11:21:46;;;;;;;16.30;6.85;;;;;;;;;;5055779;28;20029;-78
2021/08/05 11:24:32;;;;;;;12.60;7.28;;;;;;;;;;5055968;28;20334;-78
2021/08/05 11:27:10;;;;;;;16.17;7.80;;;;;;;;;;5057068;28;20307;-78
2021/08/05 11:29:36;;;;;;;14.70;6.65;;;;;;;;;;5057373;28;20289;-78
2021/08/05 11:32:21;;;;;;;10.02;6.53;;;;;;;;;;5057059;28;20017;-78
2021/08/05 11:34:54;;;;;;;9.93;6.03;;;;;;;;;;5057003;28;20477;-78
2021/08/05 11:37:20;;;;;;;12.80;6.32;;;;;;;;;;5057124;28;20037;-78
2021/08/05 11:39:50;;;;;;;11.60;6.97;;;;;;;;;;5056010;28;20044;-78
2021/08/05 11:42:18;;;;;;;12.18;6.38;;;;;;;;;;5057007;28;20108;-78
2021/08/05 11:44:45;;;;;;;11.18;5.97;;;;;;;;;;5056833;28;20033;-78
2021/08/05 11:47:14;;;;;;;13.32;6.50;;;;;;;;;;5056519;28;20052;-78
2021/08/05 11:49:51;;;;;;;11.35;5.53;;;;;;;;;;5056674;28;20402;-78
2021/08/05 11:52:32;;;;;;;14.98;7.15;;;;;;;;;;5056687;28;20104;-78
2021/08/05 11:54:58;;;;;;;10.27;5.85;;;;;;;;;;5057077;28;20032;-78
2021/08/05 11:57:25;;;;;;;12.75;6.82;;;;;;;;;;5056856;28;20295;-78
2021/08/05 11:59:51;;;;;;;14.52;7.10;;;;;;;;;;5056684;28;20429;-78
2021/08/05 12:02:25;;;;;;;10.25;6.38;;;;;;;;;;5055730;28;20120;-78
2021/08/05 12:04:53;;;;;;;13.18;6.65;;;;;;;;;;5056844;28;20028;-78
2021/08/05 12:07:20;;;;;;;12.80;6.80;;;;;;;;;;5056820;28;20319;-78
2021/08/05 12:09:50;;;;;;;10.05;6.28;;;;;;;;;;5055687;28;20025;-79
2021/08/05 12:12:16;;;;;;;14.35;6.45;;;;;;;;;;5056689;28;20032;-74
2021/08/05 12:14:58;;;;;;;12.10;6.25;;;;;;;;;;5056524;28;20296;-76
2021/08/05 12:17:31;;;;;;;9.82;6.05;;;;;;;;;;5056725;28;20068;-75
2021/08/05 12:19:57;;;;;;;11.88;6.72;;;;;;;;;;5055584;28;20025;-76
2021/08/05 12:22:33;;;;;;;11.63;6.60;;;;;;;;;;5056589;28;20025;-75
2021/08/05 12:25:02;;;;;;;14.00;7.15;;;;;;;;;;5056530;28;20090;-75
2021/08/05 12:27:29;;;;;;;12.88;6.20;;;;;;;;;;5056614;28;20029;-75
2021/08/05 12:30:06;;;;;;;9.90;5.75;;;;;;;;;;5056645;28;20018;-75
2021/08/05 12:32:33;;;;;;;8.75;5.85;;;;;;;;;;5055590;28;20036;-75
2021/08/05 12:34:59;;;;;;;14.48;6.60;;;;;;;;;;5059836;28;20383;-76
2021/08/05 12:37:25;;;;;;;14.32;6.88;;;;;;;;;;5059113;28;20430;-76
2021/08/05 12:39:51;;;;;;;14.73;6.88;;;;;;;;;;5059127;28;20033;-76
2021/08/05 12:42:18;;;;;;;10.05;6.57;;;;;;;;;;5059908;28;20356;-76
2021/08/05 12:44:44;;;;;;;9.98;7.38;;;;;;;;;;5060082;28;20437;-76
2021/08/05 12:47:10;;;;;;;13.88;8.07;;;;;;;;;;5059705;28;20132;-76
2021/08/05 12:49:38;;;;;;;10.55;6.93;;;;;;;;;;5058859;28;20474;-77
2021/08/05 12:52:05;;;;;;;7.22;5.50;;;;;;;;;;5059893;28;20057;-76
2021/08/05 12:54:31;;;;;;;8.30;6.00;;;;;;;;;;5070546;28;20099;-76
2021/08/05 12:56:58;;;;;;;15.63;5.50;;;;;;;;;;5067578;28;20017;-76
2021/08/05 12:59:26;;;;;;;7.22;5.22;;;;;;;;;;5079739;28;20047;-75
2021/08/05 13:02:11;;;;;;;7.82;4.90;;;;;;;;;;5079980;28;20028;-76
2021/08/05 13:04:37;;;;;;;6.45;4.70;;;;;;;;;;5078713;28;20070;-75
2021/08/05 13:07:08;;;;;;;9.93;5.60;;;;;;;;;;5079479;28;20099;-76
2021/08/05 13:09:34;;;;;;;6.88;5.03;;;;;;;;;;5078313;28;20120;-76
2021/08/05 13:12:02;;;;;;;12.50;7.70;;;;;;;;;;5079640;28;20458;-76
2021/08/05 13:14:29;;;;;;;6.50;4.63;;;;;;;;;;5078474;28;20033;-76
2021/08/05 13:17:06;;;;;;;8.60;5.70;;;;;;;;;;5079685;28;20063;-76
2021/08/05 13:19:32;;;;;;;10.40;4.97;;;;;;;;;;5077826;28;20086;-75
2021/08/05 13:21:59;;;;;;;7.07;5.18;;;;;;;;;;5079352;28;20027;-75
2021/08/05 13:24:29;;;;;;;11.00;7.78;;;;;;;;;;5079509;28;20029;-75
2021/08/05 13:26:58;;;;;;;10.43;5.50;;;;;;;;;;5079231;28;20020;-75
2021/08/05 13:29:35;;;;;;;13.13;5.60;;;;;;;;;;5071649;28;20071;-76
2021/08/05 13:32:01;;;;;;;6.97;4.68;;;;;;;;;;5065378;28;20050;-76
2021/08/05 13:34:27;;;;;;;12.07;6.25;;;;;;;;;;5078875;28;20031;-76
2021/08/05 13:36:54;;;;;;;7.75;5.22;;;;;;;;;;5078014;28;20033;-76
2021/08/05 13:39:40;;;;;;;7.72;5.10;;;;;;;;;;5076889;28;20040;-76
2021/08/05 13:42:06;;;;;;;8.38;4.50;;;;;;;;;;5077677;28;20040;-76
2021/08/05 13:44:32;;;;;;;7.32;4.13;;;;;;;;;;5077557;28;20031;-76
2021/08/05 13:46:58;;;;;;;8.32;4.43;;;;;;;;;;5078660;28;20073;-76
2021/08/05 13:49:24;;;;;;;7.32;3.70;;;;;;;;;;5078799;28;20048;-75
2021/08/05 13:51:50;;;;;;;9.80;3.70;;;;;;;;;;5078820;28;20028;-76
2021/08/05 13:54:16;;;;;;;7.20;4.05;;;;;;;;;;5078836;28;20027;-75
2021/08/05 13:56:42;;;;;;;8.85;4.65;;;;;;;;;;5077647;28;20434;-75
2021/08/05 13:59:08;;;;;;;4.80;3.35;;;;;;;;;;5078649;28;20418;-76
2021/08/05 14:01:35;;;;;;;6.07;3.88;;;;;;;;;;5066730;28;20415;-76
2021/08/05 14:04:01;;;;;;;12.40;6.32;;;;;;;;;;5058553;28;20039;-75
2021/08/05 14:06:27;;;;;;;11.18;5.38;;;;;;;;;;5057336;28;20423;-76
2021/08/05 14:08:53;;;;;;;6.70;3.90;;;;;;;;;;5058348;28;20021;-76
2021/08/05 14:11:19;;;;;;;5.60;3.03;;;;;;;;;;5058389;28;20021;-76
2021/08/05 14:13:45;;;;;;;11.20;5.38;;;;;;;;;;5058382;28;20023;-76
2021/08/05 14:16:11;;;;;;;8.77;4.22;;;;;;;;;;5057804;28;20029;-76
2021/08/05 14:18:37;;;;;;;6.95;4.13;;;;;;;;;;5058042;28;20036;-76
2021/08/05 14:21:03;;;;;;;9.60;5.25;;;;;;;;;;5058429;28;20024;-76
2021/08/05 14:23:29;;;;;;;7.95;5.13;;;;;;;;;;5068698;28;20395;-76
2021/08/05 14:25:55;;;;;;;5.80;4.25;;;;;;;;;;5077167;28;20146;-75
2021/08/05 14:28:22;;;;;;;6.78;4.50;;;;;;;;;;5077932;28;20028;-76
2021/08/05 14:30:48;;;;;;;5.45;3.22;;;;;;;;;;5077907;28;20035;-76
2021/08/05 14:33:15;;;;;;;4.22;3.03;;;;;;;;;;5077707;28;20418;-76
2021/08/05 14:35:41;;;;;;;7.45;4.78;;;;;;;;;;5078192;28;20029;-76
2021/08/05 14:38:08;;;;;;;8.80;4.50;;;;;;;;;;5077956;28;20052;-76
2021/08/05 14:40:35;;;;;;;17.20;8.95;;;;;;;;;;5077679;28;20036;-76
2021/08/05 14:43:01;;;;;;;32.78;13.00;;;;;;;;;;5077789;28;20035;-80
2021/08/05 14:45:27;;;;;;;8.52;4.57;;;;;;;;;;5077676;28;20021;-76
2021/08/05 14:47:53;;;;;;;6.13;3.85;;;;;;;;;;5077419;28;20327;-76
2021/08/05 14:50:19;;;;;;;6.60;4.03;;;;;;;;;;5077864;28;20025;-77
2021/08/05 14:52:46;;;;;;;5.32;3.50;;;;;;;;;;5076000;28;20066;-76
2021/08/05 14:55:12;;;;;;;6.05;3.45;;;;;;;;;;5077644;28;20028;-76
2021/08/05 14:57:38;;;;;;;6.97;3.83;;;;;;;;;;5077188;28;20031;-76
2021/08/05 15:00:06;;;;;;;8.77;4.30;;;;;;;;;;5077532;28;20025;-75
2021/08/05 15:02:32;;;;;;;9.63;4.82;;;;;;;;;;5077354;28;20025;-76
2021/08/05 15:05:00;;;;;;;13.35;6.30;;;;;;;;;;5077404;28;20036;-76
2021/08/05 15:07:27;;;;;;;8.40;3.88;;;;;;;;;;5077379;28;20032;-76
2021/08/05 15:09:53;;;;;;;7.35;4.20;;;;;;;;;;5076064;28;20037;-77
2021/08/05 15:12:19;;;;;;;6.72;4.40;;;;;;;;;;5077411;28;20021;-76
2021/08/05 15:14:45;;;;;;;9.57;5.75;;;;;;;;;;5077309;28;20026;-76
2021/08/05 15:17:11;;;;;;;5.32;4.00;;;;;;;;;;5076292;28;20043;-76
2021/08/05 15:19:37;;;;;;;7.20;3.95;;;;;;;;;;5077497;28;20024;-76
2021/08/05 15:22:03;;;;;;;7.07;4.00;;;;;;;;;;5077345;28;20094;-75
2021/08/05 15:24:30;;;;;;;31.23;8.70;;;;;;;;;;5076942;28;20027;-76
2021/08/05 15:26:57;;;;;;;7.50;3.92;;;;;;;;;;5076851;28;20020;-76
2021/08/05 15:29:23;;;;;;;6.72;4.15;;;;;;;;;;5075144;28;20052;-76
2021/08/05 15:31:50;;;;;;;4.32;3.30;;;;;;;;;;5077010;28;20037;-76
2021/08/05 15:34:19;;;;;;;4.35;3.88;;;;;;;;;;5077278;28;20021;-76
2021/08/05 15:36:45;;;;;;;7.15;4.05;;;;;;;;;;5077002;28;20021;-76